EWG585 ESGG-EDDV
Flight info
| Callsign | EWG585 |
|---|---|
| Flight time | N/A |
| Altitude | 36000 |
| Route | VADIN M852 ALASA/N0450F350 M852 EKERN/N0450F360 N125 ELSOB/N0450F370 N850 NIE |
| Aircraft | A320/M-SDE3FGHIRWY/LB1 |
Departure
| Time | N/A |
|---|---|
| Airport | Göteborg Landvetter Airport (ESGG) |
Arrival
| Time | 2026-05-03 20:46 |
|---|---|
| Airport | Hannover Airport (EDDV) |
| Time | Latitude | Longitude | Altitude | Speed | Heading |
|---|---|---|---|---|---|
| 2026-05-03 20:15 | 54.67410 | 9.91775 | 30009 ft | 413 kts | 191° |
| 2026-05-03 20:15 | 54.61722 | 9.89938 | 30009 ft | 418 kts | 191° |
| 2026-05-03 20:16 | 54.55978 | 9.88099 | 30009 ft | 422 kts | 191° |
| 2026-05-03 20:16 | 54.50181 | 9.86257 | 30009 ft | 425 kts | 191° |
| 2026-05-03 20:17 | 54.44379 | 9.84412 | 30009 ft | 429 kts | 191° |
| 2026-05-03 20:17 | 54.38494 | 9.82521 | 30009 ft | 432 kts | 191° |
| 2026-05-03 20:18 | 54.32605 | 9.80629 | 30009 ft | 434 kts | 191° |
| 2026-05-03 20:18 | 54.26643 | 9.78738 | 30009 ft | 437 kts | 191° |
| 2026-05-03 20:19 | 54.20646 | 9.76811 | 30009 ft | 439 kts | 191° |
| 2026-05-03 20:19 | 54.14686 | 9.74741 | 30009 ft | 441 kts | 192° |
| 2026-05-03 20:20 | 54.08628 | 9.72608 | 30009 ft | 443 kts | 192° |
| 2026-05-03 20:20 | 54.02639 | 9.70556 | 30009 ft | 444 kts | 191° |
| 2026-05-03 20:21 | 53.96523 | 9.68487 | 30009 ft | 446 kts | 191° |
| 2026-05-03 20:21 | 53.90390 | 9.66411 | 29337 ft | 456 kts | 191° |
| 2026-05-03 20:21 | 53.87297 | 9.65367 | 28674 ft | 453 kts | 191° |
| 2026-05-03 20:22 | 53.84219 | 9.64329 | 28033 ft | 450 kts | 191° |
| 2026-05-03 20:22 | 53.81143 | 9.63288 | 27391 ft | 447 kts | 191° |
| 2026-05-03 20:22 | 53.78105 | 9.62260 | 26761 ft | 443 kts | 191° |
| 2026-05-03 20:22 | 53.75092 | 9.61246 | 26137 ft | 439 kts | 191° |
| 2026-05-03 20:23 | 53.72106 | 9.60244 | 25516 ft | 436 kts | 191° |
| 2026-05-03 20:23 | 53.69176 | 9.59263 | 24912 ft | 432 kts | 191° |
| 2026-05-03 20:23 | 53.66247 | 9.58287 | 24305 ft | 428 kts | 191° |
| 2026-05-03 20:23 | 53.63301 | 9.57715 | 23696 ft | 424 kts | 184° |
| 2026-05-03 20:24 | 53.60378 | 9.57378 | 23122 ft | 419 kts | 184° |
| 2026-05-03 20:24 | 53.57480 | 9.57042 | 22556 ft | 415 kts | 184° |
| 2026-05-03 20:24 | 53.54609 | 9.56707 | 22038 ft | 411 kts | 184° |
| 2026-05-03 20:24 | 53.51802 | 9.56364 | 21524 ft | 406 kts | 185° |
| 2026-05-03 20:25 | 53.48984 | 9.55879 | 21026 ft | 402 kts | 187° |
| 2026-05-03 20:25 | 53.46221 | 9.55279 | 20531 ft | 398 kts | 188° |
| 2026-05-03 20:25 | 53.43490 | 9.54628 | 20026 ft | 394 kts | 188° |
| 2026-05-03 20:25 | 53.40787 | 9.53979 | 19524 ft | 391 kts | 188° |
| 2026-05-03 20:26 | 53.38100 | 9.53349 | 19006 ft | 388 kts | 188° |
| 2026-05-03 20:26 | 53.35435 | 9.52744 | 18491 ft | 385 kts | 188° |
| 2026-05-03 20:26 | 53.32780 | 9.52159 | 17957 ft | 383 kts | 187° |
| 2026-05-03 20:26 | 53.30142 | 9.51590 | 17426 ft | 381 kts | 187° |
| 2026-05-03 20:27 | 53.27517 | 9.51032 | 16889 ft | 380 kts | 187° |
| 2026-05-03 20:27 | 53.24896 | 9.50478 | 16352 ft | 379 kts | 187° |
| 2026-05-03 20:27 | 53.22289 | 9.49925 | 15811 ft | 377 kts | 187° |
| 2026-05-03 20:27 | 53.19687 | 9.49372 | 15270 ft | 376 kts | 187° |
| 2026-05-03 20:28 | 53.17101 | 9.48822 | 14731 ft | 374 kts | 187° |
| 2026-05-03 20:28 | 53.14520 | 9.48274 | 14185 ft | 373 kts | 187° |
| 2026-05-03 20:28 | 53.11978 | 9.47736 | 13646 ft | 371 kts | 187° |
| 2026-05-03 20:28 | 53.09422 | 9.47192 | 13092 ft | 369 kts | 187° |
| 2026-05-03 20:29 | 53.06883 | 9.46652 | 12541 ft | 367 kts | 187° |
| 2026-05-03 20:29 | 53.04359 | 9.46110 | 11973 ft | 365 kts | 187° |
| 2026-05-03 20:29 | 53.01848 | 9.45570 | 11402 ft | 362 kts | 187° |
| 2026-05-03 20:29 | 52.99354 | 9.45038 | 10822 ft | 360 kts | 187° |
| 2026-05-03 20:30 | 52.96889 | 9.44515 | 10457 ft | 352 kts | 187° |
| 2026-05-03 20:30 | 52.94513 | 9.44009 | 10328 ft | 337 kts | 187° |
| 2026-05-03 20:30 | 52.92230 | 9.43521 | 10201 ft | 324 kts | 187° |
| 2026-05-03 20:30 | 52.90032 | 9.43049 | 10075 ft | 312 kts | 187° |
| 2026-05-03 20:31 | 52.87915 | 9.42593 | 9919 ft | 302 kts | 187° |
| 2026-05-03 20:31 | 52.85842 | 9.42151 | 9602 ft | 299 kts | 187° |
| 2026-05-03 20:31 | 52.83788 | 9.41716 | 9213 ft | 297 kts | 187° |
| 2026-05-03 20:31 | 52.81741 | 9.41281 | 8816 ft | 296 kts | 187° |
| 2026-05-03 20:32 | 52.79714 | 9.40852 | 8616 ft | 288 kts | 187° |
| 2026-05-03 20:32 | 52.77721 | 9.40428 | 8736 ft | 290 kts | 187° |
| 2026-05-03 20:32 | 52.75722 | 9.40004 | 8880 ft | 290 kts | 187° |
| 2026-05-03 20:32 | 52.73708 | 9.39579 | 8986 ft | 292 kts | 187° |
| 2026-05-03 20:33 | 52.71707 | 9.39180 | 9003 ft | 284 kts | 184° |
| 2026-05-03 20:33 | 52.69827 | 9.39653 | 9006 ft | 267 kts | 156° |
| 2026-05-03 20:33 | 52.68339 | 9.41389 | 9008 ft | 256 kts | 137° |
| 2026-05-03 20:33 | 52.67088 | 9.43453 | 9008 ft | 254 kts | 134° |
| 2026-05-03 20:34 | 52.65868 | 9.45543 | 9009 ft | 253 kts | 134° |
| 2026-05-03 20:34 | 52.64661 | 9.47623 | 9007 ft | 249 kts | 134° |
| 2026-05-03 20:34 | 52.63462 | 9.49691 | 9012 ft | 249 kts | 134° |
| 2026-05-03 20:34 | 52.62284 | 9.51722 | 8973 ft | 249 kts | 134° |
| 2026-05-03 20:35 | 52.61080 | 9.53797 | 8670 ft | 249 kts | 134° |
| 2026-05-03 20:35 | 52.59882 | 9.55862 | 8315 ft | 250 kts | 134° |
| 2026-05-03 20:35 | 52.58802 | 9.58106 | 7963 ft | 252 kts | 115° |
| 2026-05-03 20:35 | 52.58241 | 9.60828 | 7617 ft | 252 kts | 105° |
| 2026-05-03 20:36 | 52.57805 | 9.63633 | 7266 ft | 253 kts | 104° |
| 2026-05-03 20:36 | 52.57383 | 9.66445 | 6916 ft | 253 kts | 104° |
| 2026-05-03 20:36 | 52.56962 | 9.69260 | 6565 ft | 254 kts | 104° |
| 2026-05-03 20:36 | 52.56541 | 9.72078 | 6215 ft | 254 kts | 104° |
| 2026-05-03 20:37 | 52.56207 | 9.74919 | 5864 ft | 254 kts | 96° |
| 2026-05-03 20:37 | 52.56057 | 9.77802 | 5514 ft | 253 kts | 94° |
| 2026-05-03 20:37 | 52.55935 | 9.80665 | 5157 ft | 248 kts | 94° |
| 2026-05-03 20:37 | 52.55819 | 9.83471 | 4804 ft | 244 kts | 94° |
| 2026-05-03 20:38 | 52.55706 | 9.86223 | 4453 ft | 240 kts | 94° |
| 2026-05-03 20:38 | 52.55594 | 9.88932 | 4101 ft | 234 kts | 94° |
| 2026-05-03 20:38 | 52.55488 | 9.91520 | 3847 ft | 219 kts | 94° |
| 2026-05-03 20:38 | 52.55387 | 9.93984 | 3612 ft | 214 kts | 94° |
| 2026-05-03 20:39 | 52.55289 | 9.96403 | 3315 ft | 211 kts | 94° |
| 2026-05-03 20:39 | 52.55193 | 9.98762 | 3084 ft | 200 kts | 94° |
| 2026-05-03 20:39 | 52.55104 | 10.00975 | 3068 ft | 196 kts | 94° |
| 2026-05-03 20:39 | 52.54953 | 10.03187 | 3060 ft | 194 kts | 109° |
| 2026-05-03 20:40 | 52.54171 | 10.04920 | 3065 ft | 191 kts | 148° |
| 2026-05-03 20:40 | 52.52916 | 10.05489 | 3073 ft | 190 kts | 178° |
| 2026-05-03 20:40 | 52.51583 | 10.05452 | 2861 ft | 188 kts | 184° |
| 2026-05-03 20:40 | 52.50308 | 10.05327 | 2645 ft | 180 kts | 184° |
| 2026-05-03 20:41 | 52.49066 | 10.05194 | 2566 ft | 178 kts | 184° |
| 2026-05-03 20:41 | 52.47841 | 10.04973 | 2559 ft | 177 kts | 198° |
| 2026-05-03 20:41 | 52.46892 | 10.03765 | 2571 ft | 176 kts | 235° |
| 2026-05-03 20:41 | 52.46478 | 10.02619 | 2576 ft | 177 kts | 242° |
| 2026-05-03 20:42 | 52.45750 | 10.00201 | 2572 ft | 177 kts | 244° |
| 2026-05-03 20:42 | 52.45222 | 9.98384 | 2570 ft | 177 kts | 244° |
| 2026-05-03 20:42 | 52.44748 | 9.96531 | 2563 ft | 177 kts | 257° |
| 2026-05-03 20:42 | 52.44714 | 9.94518 | 2575 ft | 178 kts | 272° |
| 2026-05-03 20:43 | 52.44778 | 9.92494 | 2571 ft | 177 kts | 272° |
| 2026-05-03 20:43 | 52.44819 | 9.91157 | 2507 ft | 176 kts | 272° |
| 2026-05-03 20:43 | 52.44877 | 9.89225 | 2325 ft | 165 kts | 272° |
| 2026-05-03 20:43 | 52.44931 | 9.87431 | 2138 ft | 152 kts | 272° |
| 2026-05-03 20:44 | 52.44981 | 9.85733 | 1942 ft | 147 kts | 272° |
| 2026-05-03 20:44 | 52.45030 | 9.84073 | 1751 ft | 145 kts | 272° |
| 2026-05-03 20:44 | 52.45078 | 9.82430 | 1561 ft | 144 kts | 272° |
| 2026-05-03 20:44 | 52.45125 | 9.80797 | 1371 ft | 143 kts | 272° |
| 2026-05-03 20:45 | 52.45172 | 9.79169 | 1182 ft | 143 kts | 272° |
| 2026-05-03 20:45 | 52.45221 | 9.77546 | 992 ft | 142 kts | 272° |
| 2026-05-03 20:45 | 52.45273 | 9.75931 | 790 ft | 141 kts | 272° |
| 2026-05-03 20:45 | 52.45324 | 9.74321 | 610 ft | 141 kts | 272° |
| 2026-05-03 20:46 | 52.45365 | 9.72715 | 420 ft | 141 kts | 271° |
| 2026-05-03 20:46 | 52.45405 | 9.71117 | 234 ft | 140 kts | 271° |
| 2026-05-03 20:46 | 52.45443 | 9.69637 | 183 ft | 102 kts | 272° |
| 2026-05-03 20:46 | 52.45461 | 9.68957 | 185 ft | 28 kts | 273° |
| 2026-05-03 20:47 | 52.45470 | 9.68650 | 182 ft | 25 kts | 272° |
| 2026-05-03 20:47 | 52.45477 | 9.68382 | 181 ft | 22 kts | 272° |
| 2026-05-03 20:47 | 52.45527 | 9.68252 | 181 ft | 13 kts | 353° |
| 2026-05-03 20:47 | 52.45574 | 9.68256 | 179 ft | 0 kts | 3° |
| 2026-05-03 20:49 | 52.45576 | 9.68256 | 179 ft | 1 kts | 3° |
| 2026-05-03 20:49 | 52.45583 | 9.68256 | 179 ft | 1 kts | 3° |
| 2026-05-03 20:49 | 52.45594 | 9.68257 | 179 ft | 2 kts | 3° |
| 2026-05-03 20:50 | 52.45619 | 9.68263 | 179 ft | 8 kts | 16° |
| 2026-05-03 20:50 | 52.45643 | 9.68334 | 179 ft | 7 kts | 88° |
| 2026-05-03 20:50 | 52.45641 | 9.68407 | 179 ft | 6 kts | 93° |
| 2026-05-03 20:50 | 52.45639 | 9.68469 | 179 ft | 6 kts | 92° |
| 2026-05-03 20:51 | 52.45637 | 9.68568 | 179 ft | 11 kts | 92° |
| 2026-05-03 20:51 | 52.45633 | 9.68725 | 179 ft | 15 kts | 92° |
| 2026-05-03 20:51 | 52.45628 | 9.68889 | 179 ft | 14 kts | 93° |
| 2026-05-03 20:51 | 52.45624 | 9.69037 | 179 ft | 12 kts | 92° |
| 2026-05-03 20:52 | 52.45657 | 9.69141 | 178 ft | 10 kts | 20° |
| 2026-05-03 20:52 | 52.45723 | 9.69152 | 178 ft | 9 kts | 12° |
| 2026-05-03 20:52 | 52.45772 | 9.69195 | 178 ft | 7 kts | 23° |
| 2026-05-03 20:52 | 52.45818 | 9.69192 | 178 ft | 6 kts | 338° |
| 2026-05-03 20:53 | 52.45850 | 9.69157 | 178 ft | 5 kts | 328° |
| 2026-05-03 20:53 | 52.45878 | 9.69140 | 178 ft | 4 kts | 350° |
| 2026-05-03 20:53 | 52.45899 | 9.69145 | 179 ft | 3 kts | 16° |
| 2026-05-03 20:53 | 52.45920 | 9.69180 | 179 ft | 5 kts | 75° |
| 2026-05-03 20:54 | 52.45919 | 9.69236 | 179 ft | 4 kts | 92° |
| 2026-05-03 20:54 | 52.45918 | 9.69284 | 179 ft | 0 kts | 94° |
| 2026-05-03 20:54 | 52.45917 | 9.69293 | 179 ft | 0 kts | 94° |